Time;durP1;ratioP1;P1;durP2;ratioP2;P2;SDS_P1;SDS_P2;PMS_P1;PMS_P2;Temp;Humidity;BMP_temperature;BMP_pressure;BME280_temperature;BME280_humidity;BME280_pressure;Samples;Min_cycle;Max_cycle;Signal;HPM_P1;HPM_P2
2023/03/21 00:02:16;;;;;;;16.77;13.13;;;7.20;99.90;;;;;;5036259;28;20033;-56
2023/03/21 00:04:42;;;;;;;16.30;13.48;;;7.30;99.90;;;;;;5039609;28;20030;-54
2023/03/21 00:07:07;;;;;;;15.35;13.52;;;7.20;99.90;;;;;;5037313;28;20101;-51
2023/03/21 00:09:33;;;;;;;19.20;13.60;;;7.20;99.90;;;;;;5042438;28;20051;-53
2023/03/21 00:12:00;;;;;;;16.65;12.43;;;7.20;99.90;;;;;;5038997;28;20513;-54
2023/03/21 00:14:29;;;;;;;15.32;13.18;;;7.20;99.90;;;;;;5041060;28;20025;-55
2023/03/21 00:16:55;;;;;;;16.23;14.02;;;7.20;99.90;;;;;;5040942;28;20033;-51
2023/03/21 00:19:23;;;;;;;15.70;13.88;;;7.20;99.90;;;;;;5036107;28;20033;-51
2023/03/21 00:21:51;;;;;;;18.17;13.90;;;7.30;99.90;;;;;;5040239;28;20116;-53
2023/03/21 00:24:16;;;;;;;16.90;14.25;;;7.30;99.90;;;;;;5038519;28;20121;-55
2023/03/21 00:26:42;;;;;;;18.20;13.75;;;7.20;99.90;;;;;;5041451;28;20049;-57
2023/03/21 00:29:07;;;;;;;18.08;13.88;;;7.20;99.90;;;;;;5048979;28;20025;-55
2023/03/21 00:31:33;;;;;;;18.42;14.38;;;7.30;99.90;;;;;;5046797;28;20044;-52
2023/03/21 00:34:00;;;;;;;18.25;13.05;;;7.30;99.90;;;;;;5048009;28;20032;-55
2023/03/21 00:36:25;;;;;;;16.20;13.63;;;7.20;99.90;;;;;;5044229;28;20021;-52
2023/03/21 00:38:51;;;;;;;17.98;13.88;;;7.20;99.90;;;;;;5047879;28;20047;-57
2023/03/21 00:41:16;;;;;;;15.82;13.80;;;7.20;99.90;;;;;;5042563;28;20029;-53
2023/03/21 00:43:42;;;;;;;18.85;14.93;;;7.20;99.90;;;;;;5034173;28;20029;-57
2023/03/21 00:46:08;;;;;;;18.42;14.40;;;7.20;99.90;;;;;;5049716;28;20025;-56
2023/03/21 00:48:33;;;;;;;18.65;15.15;;;7.30;99.90;;;;;;5043793;28;20021;-58
2023/03/21 00:50:59;;;;;;;18.25;14.93;;;7.30;99.90;;;;;;5043912;28;20032;-55
2023/03/21 00:53:25;;;;;;;21.33;16.10;;;7.30;99.90;;;;;;5047764;28;20483;-54
2023/03/21 00:55:51;;;;;;;17.42;14.88;;;7.30;99.90;;;;;;5033740;28;20087;-54
2023/03/21 00:58:17;;;;;;;20.65;15.52;;;7.30;99.90;;;;;;5047809;28;20020;-57
2023/03/21 01:00:45;;;;;;;15.77;13.07;;;7.30;99.90;;;;;;5043451;28;20025;-57
2023/03/21 01:03:12;;;;;;;17.42;15.15;;;7.30;99.90;;;;;;5046397;28;20028;-52
2023/03/21 01:06:03;;;;;;;17.88;14.70;;;7.20;99.90;;;;;;5040992;28;20510;-55
2023/03/21 01:08:48;;;;;;;21.38;15.88;;;7.20;99.90;;;;;;5045082;28;20391;-56
2023/03/21 01:11:17;;;;;;;20.95;16.15;;;7.30;99.90;;;;;;5033241;28;20032;-55
2023/03/21 01:13:43;;;;;;;19.40;14.13;;;7.30;99.90;;;;;;5040722;28;20029;-57
2023/03/21 01:16:09;;;;;;;19.52;15.15;;;7.30;99.90;;;;;;5038395;28;20029;-54
2023/03/21 01:18:38;;;;;;;18.50;15.05;;;7.30;99.90;;;;;;5038580;28;20036;-54
2023/03/21 01:21:08;;;;;;;19.38;14.77;;;7.30;99.90;;;;;;5041397;28;20056;-57
2023/03/21 01:23:33;;;;;;;19.85;15.25;;;7.30;99.90;;;;;;5033632;28;20091;-57
2023/03/21 01:25:59;;;;;;;20.48;15.65;;;7.30;99.90;;;;;;5044979;28;20017;-55
2023/03/21 01:28:27;;;;;;;21.77;16.25;;;7.30;99.90;;;;;;5041784;28;20030;-56
2023/03/21 01:30:53;;;;;;;21.23;16.63;;;7.30;99.90;;;;;;5034056;28;20396;-54
2023/03/21 01:33:19;;;;;;;21.83;17.35;;;7.30;99.90;;;;;;5039788;28;20303;-56
2023/03/21 01:35:45;;;;;;;21.00;16.73;;;7.30;99.90;;;;;;5045898;28;20064;-56
2023/03/21 01:38:11;;;;;;;21.40;16.13;;;7.30;99.90;;;;;;5041643;28;20072;-57
2023/03/21 01:40:37;;;;;;;23.50;17.85;;;7.30;99.90;;;;;;5034382;28;20157;-52
2023/03/21 01:43:19;;;;;;;19.83;16.75;;;7.30;99.90;;;;;;5044210;28;20032;-56
2023/03/21 01:46:21;;;;;;;21.65;16.85;;;7.30;99.90;;;;;;5036757;28;20022;-56
2023/03/21 01:48:56;;;;;;;25.15;18.45;;;7.30;99.90;;;;;;5044307;28;20052;-51
2023/03/21 01:51:23;;;;;;;21.60;16.92;;;7.30;99.90;;;;;;5043944;28;20025;-53
2023/03/21 01:53:49;;;;;;;25.10;18.02;;;7.30;99.90;;;;;;5036952;28;20518;-51
2023/03/21 01:56:27;;;;;;;26.45;18.70;;;7.30;99.90;;;;;;5038716;28;20045;-50
2023/03/21 01:59:01;;;;;;;23.58;17.67;;;7.30;99.90;;;;;;5035773;28;20070;-50
2023/03/21 02:01:31;;;;;;;23.10;17.23;;;7.30;99.90;;;;;;5040207;28;20056;-54
2023/03/21 02:04:02;;;;;;;26.40;19.02;;;7.30;99.90;;;;;;5030835;28;20519;-51
2023/03/21 02:07:03;;;;;;;27.27;19.17;;;7.30;99.90;;;;;;5038783;28;20056;-57
2023/03/21 02:09:32;;;;;;;24.58;18.02;;;7.30;99.90;;;;;;5010010;28;20046;-54
2023/03/21 02:11:59;;;;;;;27.00;20.33;;;7.30;99.90;;;;;;5048850;28;20029;-53
2023/03/21 02:14:25;;;;;;;25.88;19.48;;;7.30;99.90;;;;;;5044666;28;20029;-52
2023/03/21 02:17:26;;;;;;;24.20;17.67;;;7.30;99.90;;;;;;5041491;28;20518;-57
2023/03/21 02:20:10;;;;;;;25.38;19.20;;;7.30;99.90;;;;;;5034587;28;20052;-55
2023/03/21 02:23:00;;;;;;;25.23;19.73;;;7.30;99.90;;;;;;5041022;28;20159;-55
2023/03/21 02:25:47;;;;;;;29.23;20.52;;;7.40;99.90;;;;;;5044845;28;20044;-53
2023/03/21 02:28:36;;;;;;;23.50;19.02;;;7.30;99.90;;;;;;5032813;28;20024;-56
2023/03/21 02:31:14;;;;;;;23.67;18.38;;;7.30;99.90;;;;;;5029145;28;20021;-57
2023/03/21 02:33:40;;;;;;;26.15;19.10;;;7.30;99.90;;;;;;5042456;28;20120;-56
2023/03/21 02:36:21;;;;;;;22.65;17.98;;;7.30;99.90;;;;;;5043797;28;20097;-57
2023/03/21 02:38:47;;;;;;;28.02;20.23;;;7.30;99.90;;;;;;5045787;28;20041;-54
2023/03/21 02:41:18;;;;;;;25.33;18.67;;;7.40;99.90;;;;;;5038240;28;20107;-54
2023/03/21 02:43:57;;;;;;;24.38;19.33;;;7.40;99.90;;;;;;5033596;28;20467;-55
2023/03/21 02:46:39;;;;;;;26.75;19.83;;;7.40;99.90;;;;;;5038134;28;20483;-55
2023/03/21 02:49:19;;;;;;;28.55;20.95;;;7.40;99.90;;;;;;5035545;28;20071;-57
2023/03/21 02:51:46;;;;;;;27.17;20.48;;;7.40;99.90;;;;;;5050126;28;20407;-55
2023/03/21 02:54:16;;;;;;;25.58;18.77;;;7.40;99.90;;;;;;5052447;28;20075;-56
2023/03/21 02:56:45;;;;;;;28.88;19.80;;;7.40;99.90;;;;;;5047699;28;20031;-56
2023/03/21 02:59:13;;;;;;;24.70;20.77;;;7.40;99.90;;;;;;5040875;28;20033;-54
2023/03/21 03:01:39;;;;;;;29.88;22.02;;;7.40;99.90;;;;;;5050591;28;20041;-56
2023/03/21 03:04:17;;;;;;;28.30;20.88;;;7.40;99.90;;;;;;5047118;28;20029;-57
2023/03/21 03:06:51;;;;;;;28.50;21.30;;;7.40;99.90;;;;;;5035333;28;20021;-56
2023/03/21 03:09:30;;;;;;;28.67;20.45;;;7.50;99.90;;;;;;5034203;28;20029;-55
2023/03/21 03:12:08;;;;;;;28.75;20.70;;;7.40;99.90;;;;;;5037708;28;20021;-55
2023/03/21 03:14:54;;;;;;;31.13;21.70;;;7.40;99.90;;;;;;5033314;28;20491;-54
2023/03/21 03:17:46;;;;;;;29.10;21.13;;;7.40;99.90;;;;;;5036331;28;20022;-54
2023/03/21 03:20:47;;;;;;;31.05;22.13;;;7.40;99.90;;;;;;5032143;28;20028;-53
2023/03/21 03:23:21;;;;;;;30.08;21.27;;;7.40;99.90;;;;;;5030456;28;20025;-55
2023/03/21 03:25:55;;;;;;;29.88;22.50;;;7.40;99.90;;;;;;5039580;28;20429;-56
2023/03/21 03:28:29;;;;;;;30.13;21.83;;;7.40;99.90;;;;;;5040319;28;21185;-56
2023/03/21 03:30:56;;;;;;;28.40;21.13;;;7.40;99.90;;;;;;5035210;28;20028;-56
2023/03/21 03:33:23;;;;;;;31.33;22.50;;;7.40;99.90;;;;;;5043184;28;20078;-56
2023/03/21 03:35:51;;;;;;;30.27;22.70;;;7.40;99.90;;;;;;5041580;28;20021;-57
2023/03/21 03:38:20;;;;;;;31.67;22.88;;;7.40;99.90;;;;;;5043183;28;20056;-57
2023/03/21 03:40:54;;;;;;;32.80;23.88;;;7.40;99.90;;;;;;5039168;28;20354;-55
2023/03/21 03:43:25;;;;;;;32.72;23.92;;;7.40;99.90;;;;;;5039117;28;20025;-54
2023/03/21 03:45:58;;;;;;;31.38;23.55;;;7.40;99.90;;;;;;5032685;28;20360;-57
2023/03/21 03:48:26;;;;;;;32.08;22.55;;;7.40;99.90;;;;;;5043271;28;20044;-56
2023/03/21 03:51:08;;;;;;;30.38;22.13;;;7.40;99.90;;;;;;5031121;28;20039;-56
2023/03/21 03:53:50;;;;;;;31.40;21.88;;;7.50;99.90;;;;;;5040855;28;20479;-54
2023/03/21 03:56:16;;;;;;;36.88;23.77;;;7.50;99.90;;;;;;5042604;28;20032;-54
2023/03/21 03:58:42;;;;;;;33.30;24.20;;;7.50;99.90;;;;;;5034123;28;20045;-57
2023/03/21 04:01:08;;;;;;;29.25;21.85;;;7.40;99.90;;;;;;5039666;28;20032;-57
2023/03/21 04:03:38;;;;;;;33.42;25.15;;;7.40;99.90;;;;;;5040560;28;20399;-54
2023/03/21 04:06:05;;;;;;;34.15;25.27;;;7.50;99.90;;;;;;5039728;28;20102;-53
2023/03/21 04:08:30;;;;;;;34.72;23.70;;;7.40;99.90;;;;;;5039933;28;20532;-56
2023/03/21 04:10:56;;;;;;;28.40;21.85;;;7.40;99.90;;;;;;5046463;28;20100;-55
2023/03/21 04:13:22;;;;;;;33.15;22.75;;;7.40;99.90;;;;;;5038928;28;20037;-58
2023/03/21 04:15:47;;;;;;;32.55;23.27;;;7.50;99.90;;;;;;5041947;28;20021;-57
2023/03/21 04:18:13;;;;;;;33.60;24.17;;;7.40;99.90;;;;;;5043432;28;20072;-54
2023/03/21 04:20:38;;;;;;;30.80;23.38;;;7.50;99.90;;;;;;5041099;28;20033;-51
2023/03/21 04:23:05;;;;;;;30.38;21.38;;;7.50;99.90;;;;;;5042325;28;20025;-54
2023/03/21 04:25:33;;;;;;;29.77;22.45;;;7.40;99.90;;;;;;5030992;28;20554;-55
2023/03/21 04:27:58;;;;;;;29.83;22.35;;;7.50;99.90;;;;;;5035950;28;20360;-57
2023/03/21 04:30:24;;;;;;;32.42;24.52;;;7.50;99.90;;;;;;5040023;28;20088;-54
2023/03/21 04:32:53;;;;;;;33.05;23.42;;;7.40;99.90;;;;;;5039480;28;20111;-55
2023/03/21 04:35:19;;;;;;;33.08;23.25;;;7.40;99.90;;;;;;5038048;28;20017;-56
2023/03/21 04:37:44;;;;;;;29.42;22.45;;;7.50;99.90;;;;;;5035389;28;20029;-55
2023/03/21 04:40:11;;;;;;;33.05;23.40;;;7.50;99.90;;;;;;5032973;28;20083;-55
2023/03/21 04:42:36;;;;;;;27.05;20.60;;;7.40;99.90;;;;;;5035543;28;20037;-55
2023/03/21 04:45:02;;;;;;;28.85;21.65;;;7.50;99.90;;;;;;5035915;28;20025;-53
2023/03/21 04:47:28;;;;;;;31.50;22.33;;;7.50;99.90;;;;;;5036993;28;20093;-54
2023/03/21 04:49:55;;;;;;;32.92;22.88;;;7.50;99.90;;;;;;5036362;28;20373;-55
2023/03/21 04:52:21;;;;;;;29.98;21.70;;;7.50;99.90;;;;;;5028610;28;20025;-51
2023/03/21 04:54:47;;;;;;;31.40;22.73;;;7.50;99.90;;;;;;5038090;28;20036;-53
2023/03/21 04:57:12;;;;;;;34.83;23.25;;;7.50;99.90;;;;;;5040028;28;20024;-56
2023/03/21 04:59:38;;;;;;;31.33;22.23;;;7.50;99.90;;;;;;5034903;28;20026;-55
2023/03/21 05:02:04;;;;;;;30.73;22.63;;;7.50;99.90;;;;;;5024886;28;20480;-55
2023/03/21 05:04:30;;;;;;;34.17;23.48;;;7.50;99.90;;;;;;5038623;28;20056;-55
2023/03/21 05:06:56;;;;;;;30.83;22.48;;;7.50;99.90;;;;;;5038175;28;20075;-56
2023/03/21 05:09:22;;;;;;;31.23;22.30;;;7.60;99.90;;;;;;5037797;28;20030;-51
2023/03/21 05:11:48;;;;;;;30.73;21.88;;;7.50;99.90;;;;;;5038851;28;20024;-54
2023/03/21 05:14:18;;;;;;;29.55;22.30;;;7.50;99.90;;;;;;5030130;28;20341;-56
2023/03/21 05:16:47;;;;;;;30.60;22.58;;;7.50;99.90;;;;;;5038848;28;20030;-56
2023/03/21 05:19:14;;;;;;;32.80;22.63;;;7.60;99.90;;;;;;5036494;28;20122;-57
2023/03/21 05:21:43;;;;;;;32.72;23.30;;;7.60;99.90;;;;;;5036624;28;20071;-53
2023/03/21 05:24:20;;;;;;;34.70;23.73;;;7.60;99.90;;;;;;5040652;28;20023;-54
2023/03/21 05:26:49;;;;;;;30.23;22.65;;;7.60;99.90;;;;;;5037827;28;20068;-55
2023/03/21 05:29:17;;;;;;;30.35;22.55;;;7.60;99.90;;;;;;5035282;28;20082;-55
2023/03/21 05:31:44;;;;;;;32.78;23.60;;;7.60;99.90;;;;;;5035595;28;20111;-54
2023/03/21 05:34:10;;;;;;;32.15;22.17;;;7.60;99.90;;;;;;5037503;28;20394;-52
2023/03/21 05:36:35;;;;;;;31.30;23.10;;;7.60;99.90;;;;;;5039776;28;20437;-52
2023/03/21 05:39:02;;;;;;;30.10;21.73;;;7.60;99.90;;;;;;5037083;28;20108;-51
2023/03/21 05:41:28;;;;;;;32.58;23.00;;;7.60;99.90;;;;;;5033244;28;20029;-56
2023/03/21 05:43:53;;;;;;;32.35;23.40;;;7.60;99.90;;;;;;5032327;28;20023;-57
2023/03/21 05:46:19;;;;;;;31.05;22.42;;;7.60;99.90;;;;;;5029286;28;20029;-50
2023/03/21 05:48:45;;;;;;;31.02;23.08;;;7.60;99.90;;;;;;5033948;28;20037;-56
2023/03/21 05:51:10;;;;;;;34.58;24.45;;;7.60;99.90;;;;;;5034840;28;20025;-56
2023/03/21 05:53:36;;;;;;;35.08;24.73;;;7.70;99.90;;;;;;5038957;28;20119;-56
2023/03/21 05:56:02;;;;;;;33.75;24.35;;;7.70;99.90;;;;;;5036206;28;20072;-55
2023/03/21 05:58:27;;;;;;;33.38;24.77;;;7.70;99.90;;;;;;5038578;28;20040;-54
2023/03/21 06:00:53;;;;;;;32.88;23.38;;;7.70;99.90;;;;;;5039800;28;20032;-55
2023/03/21 06:03:19;;;;;;;34.17;25.08;;;7.70;99.90;;;;;;5039896;28;20036;-57
2023/03/21 06:05:44;;;;;;;31.92;23.00;;;7.80;99.90;;;;;;5040097;28;20117;-57
2023/03/21 06:08:10;;;;;;;34.03;23.73;;;7.80;99.90;;;;;;5040240;28;20083;-55
2023/03/21 06:10:36;;;;;;;29.67;22.95;;;7.80;99.90;;;;;;5035750;28;20029;-54
2023/03/21 06:13:01;;;;;;;34.47;24.73;;;7.90;99.90;;;;;;5037498;28;20029;-55
2023/03/21 06:15:27;;;;;;;29.58;22.70;;;7.90;99.90;;;;;;5037100;28;20060;-52
2023/03/21 06:17:52;;;;;;;30.48;22.17;;;7.90;99.90;;;;;;5043913;28;20025;-55
2023/03/21 06:20:18;;;;;;;33.15;23.75;;;7.90;99.90;;;;;;5036217;28;20032;-54
2023/03/21 06:22:44;;;;;;;34.58;25.73;;;7.90;99.90;;;;;;5044984;28;20089;-55
2023/03/21 06:25:10;;;;;;;37.60;26.05;;;7.90;99.90;;;;;;5038134;28;20029;-56
2023/03/21 06:27:36;;;;;;;38.33;27.13;;;8.00;99.90;;;;;;5042154;28;20116;-57
2023/03/21 06:30:03;;;;;;;33.33;26.90;;;8.00;99.90;;;;;;5033088;28;20155;-58
2023/03/21 06:32:29;;;;;;;34.78;27.25;;;8.00;99.90;;;;;;5042537;28;20037;-54
2023/03/21 06:34:55;;;;;;;37.50;27.15;;;8.00;99.90;;;;;;5036857;28;20082;-56
2023/03/21 06:37:20;;;;;;;37.75;26.83;;;8.00;99.90;;;;;;5040117;28;20044;-55
2023/03/21 06:39:46;;;;;;;36.88;25.80;;;8.00;99.90;;;;;;5042937;28;20374;-57
2023/03/21 06:42:12;;;;;;;35.38;26.05;;;8.10;99.90;;;;;;5043896;28;20047;-52
2023/03/21 06:44:38;;;;;;;35.63;26.13;;;8.00;99.90;;;;;;5040695;28;20024;-54
2023/03/21 06:47:04;;;;;;;34.35;25.08;;;8.00;99.90;;;;;;5045261;28;20013;-56
2023/03/21 06:49:30;;;;;;;34.65;26.60;;;8.00;99.90;;;;;;5040675;28;20026;-50
2023/03/21 06:51:55;;;;;;;34.10;25.88;;;8.00;99.90;;;;;;5047274;28;20020;-53
2023/03/21 06:54:21;;;;;;;33.97;25.55;;;8.10;99.90;;;;;;5040494;28;20018;-56
2023/03/21 06:56:47;;;;;;;33.03;25.10;;;8.10;99.90;;;;;;5043233;28;20025;-57
2023/03/21 06:59:12;;;;;;;35.05;26.08;;;8.10;99.90;;;;;;5043001;28;20030;-54
2023/03/21 07:01:38;;;;;;;31.75;25.55;;;8.10;99.90;;;;;;5041840;28;20113;-52
2023/03/21 07:04:05;;;;;;;33.60;25.50;;;8.10;99.90;;;;;;5045422;28;20013;-55
2023/03/21 07:06:30;;;;;;;34.70;25.17;;;8.20;99.90;;;;;;5039078;28;20027;-56
2023/03/21 07:08:56;;;;;;;34.97;26.00;;;8.20;99.90;;;;;;5046802;28;20030;-52
2023/03/21 07:11:23;;;;;;;35.25;26.05;;;8.20;99.90;;;;;;5040077;28;20037;-55
2023/03/21 07:13:49;;;;;;;36.42;26.95;;;8.20;99.90;;;;;;5042353;28;20032;-55
2023/03/21 07:16:16;;;;;;;38.25;27.85;;;8.20;99.90;;;;;;5040582;28;20028;-56
2023/03/21 07:18:41;;;;;;;36.47;26.55;;;8.30;99.90;;;;;;5042452;28;20445;-55
2023/03/21 07:21:08;;;;;;;36.47;26.00;;;8.30;99.90;;;;;;5038878;28;20114;-56
2023/03/21 07:23:33;;;;;;;37.28;27.75;;;8.30;99.90;;;;;;5042770;28;20367;-57
2023/03/21 07:26:00;;;;;;;38.80;28.35;;;8.30;99.90;;;;;;5040093;28;20104;-53
2023/03/21 07:28:25;;;;;;;35.50;26.80;;;8.30;99.90;;;;;;5040953;28;20450;-56
2023/03/21 07:30:55;;;;;;;36.83;28.05;;;8.30;99.90;;;;;;5038658;28;20132;-54
2023/03/21 07:33:22;;;;;;;41.55;29.05;;;8.30;99.90;;;;;;5042852;28;20510;-55
2023/03/21 07:35:51;;;;;;;42.15;28.95;;;8.40;99.90;;;;;;5040864;28;20108;-55
2023/03/21 07:38:18;;;;;;;38.20;29.00;;;8.40;99.90;;;;;;5042519;28;20467;-58
2023/03/21 07:40:45;;;;;;;39.97;29.52;;;8.40;99.90;;;;;;5037187;28;20436;-58
2023/03/21 07:43:11;;;;;;;40.70;29.58;;;8.40;99.90;;;;;;5043433;28;20352;-55
2023/03/21 07:45:36;;;;;;;44.20;29.30;;;8.40;99.90;;;;;;5041252;28;20025;-57
2023/03/21 07:48:02;;;;;;;41.83;28.70;;;8.50;99.90;;;;;;5041523;28;20025;-57
2023/03/21 07:50:28;;;;;;;39.10;28.08;;;8.50;99.90;;;;;;5031070;28;20036;-57
2023/03/21 07:52:54;;;;;;;41.50;27.23;;;8.50;99.90;;;;;;5040327;28;20056;-56
2023/03/21 07:55:19;;;;;;;41.25;27.55;;;8.50;99.90;;;;;;5043056;28;20028;-53
2023/03/21 07:57:48;;;;;;;40.63;29.38;;;8.50;99.90;;;;;;5039915;28;20519;-55
2023/03/21 08:00:21;;;;;;;40.22;27.65;;;8.50;99.90;;;;;;5042392;28;20039;-56
2023/03/21 08:02:53;;;;;;;40.05;28.02;;;8.50;99.90;;;;;;5040776;28;20029;-56
2023/03/21 08:05:25;;;;;;;40.15;30.20;;;8.50;99.90;;;;;;5042637;28;20433;-55
2023/03/21 08:07:50;;;;;;;38.28;29.60;;;8.60;99.90;;;;;;5041650;28;20216;-54
2023/03/21 08:10:16;;;;;;;41.80;29.30;;;8.60;99.90;;;;;;5042228;28;20491;-54
2023/03/21 08:12:43;;;;;;;44.75;30.23;;;8.60;99.90;;;;;;5040188;28;20108;-57
2023/03/21 08:15:09;;;;;;;38.47;28.67;;;8.60;99.90;;;;;;5036851;28;20033;-53
2023/03/21 08:17:36;;;;;;;41.00;29.92;;;8.60;99.90;;;;;;5046303;28;20108;-58
2023/03/21 08:20:06;;;;;;;36.90;28.02;;;8.60;99.90;;;;;;5036934;28;20514;-57
2023/03/21 08:22:32;;;;;;;38.33;27.55;;;8.60;99.90;;;;;;5046686;28;20024;-56
2023/03/21 08:24:57;;;;;;;39.17;29.20;;;8.60;99.90;;;;;;5038614;28;20017;-58
2023/03/21 08:27:23;;;;;;;40.88;28.58;;;8.60;99.90;;;;;;5037913;28;20099;-57
2023/03/21 08:29:48;;;;;;;40.58;28.02;;;8.60;99.90;;;;;;5039487;28;20571;-56
2023/03/21 08:32:17;;;;;;;39.90;28.45;;;8.60;99.90;;;;;;5038259;28;20066;-55
2023/03/21 08:34:43;;;;;;;38.60;27.75;;;8.60;99.90;;;;;;5040382;28;20256;-56
2023/03/21 08:37:09;;;;;;;39.67;28.60;;;8.70;99.90;;;;;;5038322;28;20357;-54
2023/03/21 08:39:34;;;;;;;37.33;27.50;;;8.70;99.90;;;;;;5038698;28;20030;-56
2023/03/21 08:42:00;;;;;;;40.08;27.88;;;8.70;99.90;;;;;;5041680;28;20025;-55
2023/03/21 08:44:26;;;;;;;40.35;28.15;;;8.70;99.90;;;;;;5036910;28;20083;-56
2023/03/21 08:46:51;;;;;;;40.58;26.98;;;8.70;99.90;;;;;;5042652;28;20021;-57
2023/03/21 08:49:17;;;;;;;39.20;27.27;;;8.70;99.90;;;;;;5036333;28;20026;-53
2023/03/21 08:51:44;;;;;;;34.75;25.70;;;8.80;99.90;;;;;;5041160;28;20029;-53
2023/03/21 08:54:19;;;;;;;38.78;26.63;;;8.80;99.90;;;;;;5040506;28;20144;-57
2023/03/21 08:56:44;;;;;;;38.38;24.80;;;8.80;99.90;;;;;;5040354;28;20381;-57
2023/03/21 08:59:10;;;;;;;36.88;25.27;;;8.90;99.90;;;;;;5040884;28;20068;-57
2023/03/21 09:01:35;;;;;;;37.95;28.08;;;8.90;99.90;;;;;;5039047;28;20033;-58
2023/03/21 09:04:01;;;;;;;32.80;24.98;;;8.90;99.90;;;;;;5043017;28;20029;-56
2023/03/21 09:06:28;;;;;;;39.80;25.17;;;8.90;99.90;;;;;;5038053;28;20036;-56
2023/03/21 09:08:55;;;;;;;36.97;26.70;;;8.90;99.90;;;;;;5044977;28;20044;-54
2023/03/21 09:11:21;;;;;;;37.63;25.10;;;8.90;99.90;;;;;;5036800;28;20028;-57
2023/03/21 09:13:47;;;;;;;35.90;24.73;;;9.00;99.90;;;;;;5040652;28;20025;-55
2023/03/21 09:16:12;;;;;;;37.63;25.83;;;9.00;99.90;;;;;;5036780;28;20548;-54
2023/03/21 09:18:45;;;;;;;35.88;25.63;;;9.00;99.90;;;;;;5032660;28;20076;-57
2023/03/21 09:21:13;;;;;;;33.53;25.00;;;9.00;99.90;;;;;;5034686;28;20483;-56
2023/03/21 09:23:39;;;;;;;37.63;25.65;;;9.00;99.90;;;;;;5041114;28;20024;-57
2023/03/21 09:26:06;;;;;;;42.40;26.50;;;9.00;99.90;;;;;;5040091;28;20417;-58
2023/03/21 09:28:33;;;;;;;37.38;26.17;;;9.00;99.90;;;;;;5037064;28;20525;-56
2023/03/21 09:31:01;;;;;;;38.40;26.40;;;9.00;99.90;;;;;;5039785;28;20071;-58
2023/03/21 09:33:28;;;;;;;37.75;26.90;;;9.00;99.90;;;;;;5038072;28;20033;-58
2023/03/21 09:35:54;;;;;;;39.60;27.05;;;9.10;99.90;;;;;;5039437;28;20020;-56
2023/03/21 09:38:21;;;;;;;38.25;25.25;;;9.10;99.90;;;;;;5038995;28;20031;-57
2023/03/21 09:40:46;;;;;;;39.33;25.00;;;9.10;99.90;;;;;;5036524;28;20136;-55
2023/03/21 09:43:37;;;;;;;42.17;26.52;;;9.10;99.90;;;;;;5038982;28;20101;-56
2023/03/21 09:46:26;;;;;;;36.10;26.10;;;9.10;99.90;;;;;;5033265;28;20506;-55
2023/03/21 09:49:06;;;;;;;43.08;25.60;;;9.10;99.90;;;;;;5032714;28;20097;-54
2023/03/21 09:51:45;;;;;;;37.00;24.25;;;9.10;99.90;;;;;;5044363;28;20033;-58
2023/03/21 09:54:39;;;;;;;34.72;24.88;;;9.20;99.90;;;;;;5037284;28;20029;-56
2023/03/21 09:57:22;;;;;;;41.08;25.75;;;9.20;99.90;;;;;;5026009;28;20233;-55
2023/03/21 09:59:51;;;;;;;36.05;24.77;;;9.20;99.90;;;;;;5039406;28;20462;-57
2023/03/21 10:02:35;;;;;;;40.33;25.45;;;9.20;99.90;;;;;;5040299;28;20021;-52
2023/03/21 10:05:08;;;;;;;44.53;25.50;;;9.30;99.90;;;;;;5030325;28;20048;-55
2023/03/21 10:07:40;;;;;;;37.20;25.27;;;9.30;99.90;;;;;;5038367;28;20483;-55
2023/03/21 10:10:14;;;;;;;39.85;25.38;;;9.30;99.90;;;;;;5040685;28;20074;-57
2023/03/21 10:12:42;;;;;;;37.35;24.58;;;9.40;99.90;;;;;;5038425;28;20028;-56
2023/03/21 10:15:13;;;;;;;34.10;23.83;;;9.50;99.90;;;;;;5036828;28;20029;-57
2023/03/21 10:17:42;;;;;;;39.03;24.38;;;9.50;99.90;;;;;;5044198;28;20483;-58
2023/03/21 10:20:21;;;;;;;34.15;25.33;;;9.50;99.90;;;;;;5036764;28;20036;-57
2023/03/21 10:22:49;;;;;;;37.35;24.65;;;9.60;99.90;;;;;;5044758;28;20334;-57
2023/03/21 10:25:38;;;;;;;34.00;23.45;;;9.60;99.90;;;;;;5037126;28;20020;-57
2023/03/21 10:28:06;;;;;;;33.70;23.25;;;9.60;99.90;;;;;;5034709;28;20021;-54
2023/03/21 10:30:36;;;;;;;30.50;22.15;;;9.70;99.90;;;;;;5039042;28;20029;-57
2023/03/21 10:33:04;;;;;;;30.65;20.85;;;9.70;99.90;;;;;;5040227;28;20079;-57
2023/03/21 10:35:35;;;;;;;28.50;20.42;;;9.80;99.90;;;;;;5039503;28;20029;-55
2023/03/21 10:38:03;;;;;;;34.63;21.92;;;9.80;99.90;;;;;;5040534;28;20459;-55
2023/03/21 10:40:28;;;;;;;31.23;21.73;;;9.80;99.90;;;;;;5037209;28;20499;-58
2023/03/21 10:42:56;;;;;;;28.63;19.98;;;9.80;99.90;;;;;;5040519;28;20051;-55
2023/03/21 10:45:23;;;;;;;25.92;19.15;;;9.90;99.90;;;;;;5037534;28;20447;-57
2023/03/21 10:47:50;;;;;;;24.75;17.77;;;9.90;99.90;;;;;;5039660;28;20487;-57
2023/03/21 10:50:19;;;;;;;21.60;17.73;;;9.90;99.90;;;;;;5039906;28;20046;-56
2023/03/21 10:52:50;;;;;;;21.50;16.80;;;10.00;99.90;;;;;;5039046;28;20037;-56
2023/03/21 10:55:20;;;;;;;19.73;15.82;;;10.00;99.90;;;;;;5039812;28;20104;-56
2023/03/21 10:57:46;;;;;;;23.42;17.05;;;10.00;99.90;;;;;;5037612;28;20055;-56
2023/03/21 11:00:26;;;;;;;21.27;15.30;;;10.10;99.90;;;;;;5039811;28;20124;-55
2023/03/21 11:02:53;;;;;;;21.27;16.00;;;10.10;99.90;;;;;;5037705;28;20025;-57
2023/03/21 11:05:26;;;;;;;20.15;16.10;;;10.10;99.90;;;;;;5040505;28;20027;-58
2023/03/21 11:08:01;;;;;;;22.48;16.20;;;10.10;99.90;;;;;;5037749;28;20422;-55
2023/03/21 11:10:48;;;;;;;19.42;16.00;;;10.10;99.90;;;;;;5039997;28;20108;-53
2023/03/21 11:13:39;;;;;;;20.40;14.20;;;10.10;99.90;;;;;;5034733;28;20021;-57
2023/03/21 11:16:06;;;;;;;20.33;15.07;;;10.20;99.90;;;;;;5031949;28;20056;-58
2023/03/21 11:18:32;;;;;;;18.73;15.38;;;10.10;99.90;;;;;;5042274;28;20500;-57
2023/03/21 11:21:10;;;;;;;19.95;15.90;;;10.10;99.90;;;;;;5043519;28;20031;-55
2023/03/21 11:23:45;;;;;;;20.55;15.00;;;10.00;99.90;;;;;;5042616;28;20021;-57
2023/03/21 11:26:17;;;;;;;17.05;14.45;;;10.00;99.90;;;;;;5043323;28;20021;-54
2023/03/21 11:28:45;;;;;;;21.10;15.10;;;10.00;99.90;;;;;;5039702;28;20021;-58
2023/03/21 11:31:11;;;;;;;21.73;16.45;;;10.00;99.90;;;;;;5041874;28;20025;-56
2023/03/21 11:33:55;;;;;;;21.98;15.75;;;10.10;99.90;;;;;;5035089;28;20095;-56
2023/03/21 11:36:21;;;;;;;19.05;14.90;;;10.10;99.90;;;;;;5037074;28;20121;-58
2023/03/21 11:39:10;;;;;;;21.48;16.55;;;10.10;99.90;;;;;;5034262;28;20108;-55
2023/03/21 11:41:39;;;;;;;23.13;15.98;;;10.10;99.90;;;;;;5005735;28;20049;-56
2023/03/21 11:44:05;;;;;;;20.60;14.95;;;10.10;99.90;;;;;;5034275;28;20587;-58
2023/03/21 11:46:38;;;;;;;20.30;15.88;;;10.10;99.90;;;;;;5043866;28;20104;-56
2023/03/21 11:49:04;;;;;;;21.65;16.17;;;10.20;99.90;;;;;;5035835;28;20029;-58
2023/03/21 11:51:52;;;;;;;20.70;15.88;;;10.20;99.90;;;;;;5038834;28;20024;-58
2023/03/21 11:54:25;;;;;;;24.83;16.92;;;10.20;99.90;;;;;;5038723;28;20026;-58
2023/03/21 11:56:54;;;;;;;22.05;16.27;;;10.20;99.90;;;;;;5030268;28;20359;-57
2023/03/21 11:59:47;;;;;;;21.27;15.35;;;10.30;99.90;;;;;;5032391;28;20107;-55
2023/03/21 12:02:40;;;;;;;21.60;15.98;;;10.30;99.90;;;;;;5031459;28;20182;-56
2023/03/21 12:05:18;;;;;;;19.67;14.68;;;10.40;99.90;;;;;;5034357;28;20074;-55
2023/03/21 12:07:44;;;;;;;22.25;15.90;;;10.30;99.90;;;;;;5035849;28;20040;-58
2023/03/21 12:10:46;;;;;;;20.75;15.07;;;10.30;99.90;;;;;;5039012;28;20075;-55
2023/03/21 12:13:18;;;;;;;18.30;14.25;;;10.40;99.90;;;;;;5027673;28;20021;-58
2023/03/21 12:15:51;;;;;;;18.83;14.68;;;10.30;99.90;;;;;;5033485;28;20036;-59
2023/03/21 12:18:34;;;;;;;17.27;14.50;;;10.30;99.90;;;;;;5043099;28;20430;-57
2023/03/21 12:21:12;;;;;;;20.00;15.07;;;10.30;99.90;;;;;;5030441;28;20426;-58
2023/03/21 12:23:45;;;;;;;18.05;14.23;;;10.30;99.90;;;;;;5040148;28;20028;-57
2023/03/21 12:26:29;;;;;;;18.33;14.32;;;10.40;99.90;;;;;;5036768;28;20021;-57
2023/03/21 12:29:11;;;;;;;18.75;13.60;;;10.40;99.90;;;;;;5038914;28;20075;-57
2023/03/21 12:31:50;;;;;;;20.67;15.48;;;10.50;99.90;;;;;;5040354;28;20021;-54
2023/03/21 12:34:45;;;;;;;16.98;13.77;;;10.40;99.90;;;;;;5032548;28;20052;-56
2023/03/21 12:37:21;;;;;;;18.70;13.57;;;10.40;99.90;;;;;;5035656;28;20029;-57
2023/03/21 12:39:48;;;;;;;22.25;14.77;;;10.50;99.90;;;;;;5040207;28;20074;-58
2023/03/21 12:42:41;;;;;;;19.77;15.43;;;10.50;99.90;;;;;;5041044;28;20033;-55
2023/03/21 12:45:12;;;;;;;21.67;14.02;;;10.50;99.90;;;;;;5025568;28;20030;-57
2023/03/21 12:47:41;;;;;;;18.60;13.77;;;10.50;99.90;;;;;;5039689;28;20197;-56
2023/03/21 12:50:28;;;;;;;17.17;13.18;;;10.50;99.90;;;;;;5042935;28;20251;-55
2023/03/21 12:53:17;;;;;;;17.40;13.15;;;10.40;99.90;;;;;;5037215;28;20025;-58